createdAt,value
2022-10-16T00:03:44.490Z,100.00
2022-10-16T00:08:48.288Z,100.00
2022-10-16T00:13:52.961Z,100.00
2022-10-16T00:18:56.317Z,100.00
2022-10-16T00:24:01.396Z,100.00
2022-10-16T00:29:04.747Z,100.00
2022-10-16T00:34:07.279Z,100.00
2022-10-16T00:39:09.685Z,100.00
2022-10-16T00:44:43.189Z,100.00
2022-10-16T00:49:46.234Z,100.00
2022-10-16T00:54:50.217Z,100.00
2022-10-16T00:59:53.209Z,100.00
2022-10-16T01:04:56.728Z,100.00
2022-10-16T01:10:39.014Z,100.00
2022-10-16T01:15:58.950Z,100.00
2022-10-16T01:21:05.886Z,100.00
2022-10-16T01:26:20.200Z,100.00
2022-10-16T01:31:27.941Z,100.00
2022-10-16T01:36:40.171Z,100.00
2022-10-16T01:41:59.839Z,100.00
2022-10-16T01:47:03.368Z,100.00
2022-10-16T01:52:11.424Z,100.00
2022-10-16T01:57:16.128Z,100.00
2022-10-16T02:02:21.609Z,100.00
2022-10-16T02:07:24.318Z,100.00
2022-10-16T02:12:34.050Z,100.00
2022-10-16T02:17:36.898Z,100.00
2022-10-16T02:22:51.454Z,100.00
2022-10-16T02:28:01.240Z,100.00
2022-10-16T02:33:06.119Z,100.00
2022-10-16T02:43:33.189Z,100.00
2022-10-16T02:48:35.995Z,100.00
2022-10-16T02:53:38.382Z,100.00
2022-10-16T02:58:40.711Z,100.00
2022-10-16T03:03:43.323Z,100.00
2022-10-16T03:08:45.678Z,100.00
2022-10-16T03:13:48.068Z,100.00
2022-10-16T03:18:50.940Z,100.00
2022-10-16T03:23:53.296Z,100.00
2022-10-16T03:28:55.776Z,100.00
2022-10-16T03:33:58.701Z,100.00
2022-10-16T03:39:01.086Z,100.00
2022-10-16T03:44:03.508Z,100.00
2022-10-16T03:49:08.849Z,100.00
2022-10-16T03:54:12.277Z,100.00
2022-10-16T03:59:14.633Z,100.00
2022-10-16T04:04:16.972Z,100.00
2022-10-16T04:09:19.305Z,100.00
2022-10-16T04:14:21.682Z,100.00
2022-10-16T04:19:24.070Z,100.00
2022-10-16T04:24:26.457Z,100.00
2022-10-16T04:29:29.249Z,100.00
2022-10-16T04:34:31.727Z,100.00
2022-10-16T04:39:34.126Z,100.00
2022-10-16T04:44:36.556Z,100.00
2022-10-16T04:49:38.884Z,100.00
2022-10-16T04:54:41.319Z,100.00
2022-10-16T04:59:43.833Z,100.00
2022-10-16T05:04:46.303Z,100.00
2022-10-16T05:09:48.659Z,100.00
2022-10-16T05:14:51.060Z,100.00
2022-10-16T05:19:53.469Z,100.00
2022-10-16T05:24:55.992Z,100.00
2022-10-16T05:29:59.049Z,100.00
2022-10-16T05:35:01.941Z,100.00
2022-10-16T05:40:05.984Z,100.00
2022-10-16T05:45:10.484Z,100.00
2022-10-16T05:50:12.847Z,100.00
2022-10-16T05:55:15.356Z,100.00
2022-10-16T06:00:17.814Z,100.00
2022-10-16T06:05:20.204Z,100.00
2022-10-16T06:10:22.558Z,100.00
2022-10-16T06:15:24.952Z,100.00
2022-10-16T06:20:28.309Z,100.00
2022-10-16T06:25:34.019Z,100.00
2022-10-16T06:30:36.353Z,100.00
2022-10-16T06:35:38.796Z,100.00
2022-10-16T06:40:41.176Z,100.00
2022-10-16T06:45:43.529Z,100.00
2022-10-16T06:50:45.868Z,100.00
2022-10-16T06:55:48.214Z,100.00
2022-10-16T07:00:55.941Z,100.00
2022-10-16T07:05:58.486Z,100.00
2022-10-16T07:11:02.354Z,100.00
2022-10-16T07:16:12.721Z,100.00
2022-10-16T07:21:18.049Z,100.00
2022-10-16T07:26:20.566Z,100.00
2022-10-16T07:31:23.606Z,100.00
2022-10-16T07:36:26.037Z,100.00
2022-10-16T07:41:29.419Z,100.00
2022-10-16T07:46:32.017Z,100.00
2022-10-16T07:51:34.552Z,100.00
2022-10-16T07:56:39.888Z,100.00
2022-10-16T08:01:45.470Z,100.00
2022-10-16T08:06:47.870Z,100.00
2022-10-16T08:11:50.251Z,100.00
2022-10-16T08:16:52.611Z,100.00
2022-10-16T08:21:55.000Z,100.00
2022-10-16T08:26:57.508Z,100.00
2022-10-16T08:32:00.193Z,100.00
2022-10-16T08:37:03.107Z,100.00
2022-10-16T08:42:11.170Z,100.00
2022-10-16T08:47:19.784Z,100.00
2022-10-16T08:52:22.339Z,100.00
2022-10-16T08:57:27.949Z,100.00
2022-10-16T09:03:03.296Z,100.00
2022-10-16T09:08:14.036Z,100.00
2022-10-16T09:13:30.797Z,100.00
2022-10-16T09:18:33.169Z,100.00
2022-10-16T09:23:38.144Z,100.00
2022-10-16T09:28:41.410Z,100.00
2022-10-16T09:33:45.314Z,100.00
2022-10-16T09:38:48.062Z,100.00
2022-10-16T09:43:58.441Z,100.00
2022-10-16T09:49:22.589Z,100.00
2022-10-16T09:54:24.940Z,100.00
2022-10-16T10:05:41.258Z,96.56
2022-10-16T10:10:44.546Z,95.11
2022-10-16T10:15:47.388Z,92.54
2022-10-16T10:21:01.154Z,91.50
2022-10-16T10:26:17.387Z,90.31
2022-10-16T10:31:29.288Z,85.76
2022-10-16T10:36:45.076Z,91.57
2022-10-16T10:41:59.629Z,85.87
2022-10-16T10:47:07.961Z,82.44
2022-10-16T10:52:45.577Z,86.36
2022-10-16T10:57:57.105Z,80.11
2022-10-16T11:03:33.660Z,73.18
2022-10-16T11:08:39.811Z,75.30
2022-10-16T11:14:11.577Z,68.85
2022-10-16T11:19:21.795Z,76.98
2022-10-16T11:24:36.276Z,77.20
2022-10-16T11:29:48.099Z,77.32
2022-10-16T11:34:56.945Z,67.08
2022-10-16T11:40:15.445Z,68.56
2022-10-16T11:45:55.333Z,75.37
2022-10-16T11:51:28.188Z,80.07
2022-10-16T11:56:33.881Z,68.47
2022-10-16T12:01:45.207Z,81.30
2022-10-16T12:07:23.092Z,82.26
2022-10-16T12:12:39.975Z,81.38
2022-10-16T12:17:42.547Z,77.30
2022-10-16T12:22:58.912Z,73.71
2022-10-16T12:28:32.191Z,70.15
2022-10-16T12:33:44.176Z,69.42
2022-10-16T12:38:54.497Z,77.89
2022-10-16T12:43:57.827Z,78.12
2022-10-16T12:49:16.596Z,79.55
2022-10-16T12:54:36.316Z,81.88
2022-10-16T12:59:38.844Z,79.24
2022-10-16T13:05:07.805Z,77.29
2022-10-16T13:10:34.250Z,83.12
2022-10-16T13:15:42.479Z,85.15
2022-10-16T13:21:12.416Z,83.34
2022-10-16T13:26:43.164Z,84.46
2022-10-16T13:31:46.450Z,80.73
2022-10-16T13:36:54.073Z,87.12
2022-10-16T13:42:28.330Z,87.99
2022-10-16T13:47:31.610Z,87.05
2022-10-16T13:52:34.325Z,87.08
2022-10-16T13:57:36.719Z,79.61
2022-10-16T14:02:41.665Z,75.39
2022-10-16T14:07:44.382Z,79.13
2022-10-16T14:12:54.892Z,86.86
2022-10-16T14:17:57.449Z,86.80
2022-10-16T14:23:06.279Z,84.89
2022-10-16T14:28:14.499Z,84.33
2022-10-16T14:33:24.565Z,87.16
2022-10-16T14:38:27.390Z,86.94
2022-10-16T14:43:45.666Z,86.03
2022-10-16T14:48:55.989Z,89.31
2022-10-16T14:54:00.294Z,86.70
2022-10-16T14:59:04.281Z,89.47
2022-10-16T15:04:08.630Z,87.52
2022-10-16T15:09:11.657Z,89.56
2022-10-16T15:19:37.191Z,91.24
2022-10-16T15:24:39.659Z,91.44
2022-10-16T15:29:42.027Z,92.82
2022-10-16T15:34:44.373Z,93.78
2022-10-16T15:39:46.758Z,95.62
2022-10-16T15:44:50.999Z,98.47
2022-10-16T15:49:53.407Z,100.00
2022-10-16T15:54:56.797Z,100.00
2022-10-16T15:59:59.454Z,100.00
2022-10-16T16:05:02.785Z,100.00
2022-10-16T16:10:08.139Z,100.00
2022-10-16T16:15:11.509Z,100.00
2022-10-16T16:20:14.555Z,100.00
2022-10-16T16:25:17.028Z,100.00
2022-10-16T16:30:24.791Z,100.00
2022-10-16T16:35:29.956Z,100.00
2022-10-16T16:40:32.345Z,100.00
2022-10-16T16:45:37.869Z,100.00
2022-10-16T16:50:40.346Z,100.00
2022-10-16T16:55:42.731Z,100.00
2022-10-16T17:00:56.617Z,100.00
2022-10-16T17:06:04.003Z,100.00
2022-10-16T17:11:12.232Z,100.00
2022-10-16T17:16:14.895Z,100.00
2022-10-16T17:21:17.306Z,100.00
2022-10-16T17:26:19.709Z,100.00
2022-10-16T17:31:27.230Z,100.00
2022-10-16T17:36:34.005Z,100.00
2022-10-16T17:41:36.924Z,100.00
2022-10-16T17:46:41.204Z,100.00
2022-10-16T17:51:44.201Z,100.00
2022-10-16T17:56:47.881Z,100.00
2022-10-16T18:01:50.427Z,100.00
2022-10-16T18:06:53.125Z,100.00
2022-10-16T18:12:00.276Z,100.00
2022-10-16T18:17:03.025Z,100.00
2022-10-16T18:22:05.541Z,100.00
2022-10-16T18:27:08.215Z,100.00
2022-10-16T18:32:10.630Z,100.00
2022-10-16T18:37:14.266Z,100.00
2022-10-16T18:42:17.445Z,100.00
2022-10-16T18:47:19.847Z,100.00
2022-10-16T18:52:23.934Z,100.00
2022-10-16T18:57:30.545Z,100.00
2022-10-16T19:07:55.974Z,100.00
2022-10-16T19:12:58.443Z,100.00
2022-10-16T19:18:01.142Z,100.00
2022-10-16T19:23:04.216Z,100.00
2022-10-16T19:28:08.569Z,100.00
2022-10-16T19:33:10.987Z,100.00
2022-10-16T19:38:13.520Z,100.00
2022-10-16T19:43:15.926Z,100.00
2022-10-16T19:48:18.369Z,100.00
2022-10-16T19:53:20.841Z,100.00
2022-10-16T19:58:23.824Z,100.00
2022-10-16T20:03:26.278Z,100.00
2022-10-16T20:08:28.826Z,100.00
2022-10-16T20:13:32.481Z,100.00
2022-10-16T20:18:37.597Z,100.00
2022-10-16T20:23:41.138Z,100.00
2022-10-16T20:28:44.450Z,100.00
2022-10-16T20:33:46.971Z,100.00
2022-10-16T20:38:50.076Z,100.00
2022-10-16T20:43:53.488Z,100.00
2022-10-16T20:49:05.935Z,100.00
2022-10-16T20:54:13.939Z,100.00
2022-10-16T20:59:16.375Z,100.00
2022-10-16T21:04:18.777Z,100.00
2022-10-16T21:09:21.258Z,100.00
2022-10-16T21:14:23.608Z,100.00
2022-10-16T21:19:25.965Z,100.00
2022-10-16T21:24:28.322Z,100.00
2022-10-16T21:29:31.322Z,100.00
2022-10-16T21:34:35.323Z,100.00
2022-10-16T21:39:37.720Z,100.00
2022-10-16T21:44:40.278Z,100.00
2022-10-16T21:49:42.647Z,100.00
2022-10-16T21:54:45.091Z,100.00
2022-10-16T21:59:49.320Z,100.00
2022-10-16T22:04:51.706Z,100.00
2022-10-16T22:09:54.119Z,100.00
2022-10-16T22:14:56.477Z,100.00
2022-10-16T22:19:58.905Z,100.00
2022-10-16T22:25:01.496Z,100.00
2022-10-16T22:30:04.069Z,100.00
2022-10-16T22:35:07.033Z,100.00
2022-10-16T22:40:10.404Z,100.00
2022-10-16T22:45:12.861Z,100.00
2022-10-16T22:50:15.249Z,100.00
2022-10-16T22:55:18.095Z,100.00
2022-10-16T23:00:20.722Z,100.00
2022-10-16T23:05:23.189Z,100.00
2022-10-16T23:10:29.805Z,100.00
2022-10-16T23:15:32.513Z,100.00
2022-10-16T23:20:35.139Z,100.00
2022-10-16T23:25:37.971Z,100.00
2022-10-16T23:30:40.536Z,100.00
2022-10-16T23:35:42.939Z,100.00
2022-10-16T23:40:45.282Z,100.00
2022-10-16T23:45:47.616Z,100.00
2022-10-16T23:50:49.964Z,100.00
2022-10-16T23:55:52.696Z,100.00
